sensor_id;sensor_type;location;lat;lon;timestamp;temperature;humidity
29777;DHT22;16677;52.224;7.484;2022-11-20T00:01:45;-3.60;99.90
29777;DHT22;16677;52.224;7.484;2022-11-20T00:04:12;-3.70;99.90
29777;DHT22;16677;52.224;7.484;2022-11-20T00:06:40;-3.70;99.90
29777;DHT22;16677;52.224;7.484;2022-11-20T00:09:09;-3.70;99.90
29777;DHT22;16677;52.224;7.484;2022-11-20T00:11:36;-3.70;99.90
29777;DHT22;16677;52.224;7.484;2022-11-20T00:14:03;-3.70;99.90
29777;DHT22;16677;52.224;7.484;2022-11-20T00:16:34;-3.70;99.90
29777;DHT22;16677;52.224;7.484;2022-11-20T00:19:09;-3.70;99.90
29777;DHT22;16677;52.224;7.484;2022-11-20T00:21:37;-3.70;99.90
29777;DHT22;16677;52.224;7.484;2022-11-20T00:24:05;-3.80;99.90
29777;DHT22;16677;52.224;7.484;2022-11-20T00:26:32;-3.80;99.90
29777;DHT22;16677;52.224;7.484;2022-11-20T00:29:00;-3.80;99.90
29777;DHT22;16677;52.224;7.484;2022-11-20T00:31:28;-3.80;99.90
29777;DHT22;16677;52.224;7.484;2022-11-20T00:33:56;-3.80;99.90
29777;DHT22;16677;52.224;7.484;2022-11-20T00:36:25;-3.70;99.90
29777;DHT22;16677;52.224;7.484;2022-11-20T00:38:53;-3.80;99.90
29777;DHT22;16677;52.224;7.484;2022-11-20T00:41:20;-3.50;99.90
29777;DHT22;16677;52.224;7.484;2022-11-20T00:43:48;-3.90;99.90
29777;DHT22;16677;52.224;7.484;2022-11-20T00:46:19;-3.90;99.90
29777;DHT22;16677;52.224;7.484;2022-11-20T00:48:49;-3.90;99.90
29777;DHT22;16677;52.224;7.484;2022-11-20T00:51:18;-3.80;99.90
29777;DHT22;16677;52.224;7.484;2022-11-20T00:53:49;-4.00;99.90
29777;DHT22;16677;52.224;7.484;2022-11-20T00:56:18;-4.00;99.90
29777;DHT22;16677;52.224;7.484;2022-11-20T00:58:47;-4.00;99.90
29777;DHT22;16677;52.224;7.484;2022-11-20T01:01:16;-3.90;99.90
29777;DHT22;16677;52.224;7.484;2022-11-20T01:03:46;-3.80;99.90
29777;DHT22;16677;52.224;7.484;2022-11-20T01:06:20;-3.80;99.90
29777;DHT22;16677;52.224;7.484;2022-11-20T01:08:52;-3.60;99.90
29777;DHT22;16677;52.224;7.484;2022-11-20T01:11:23;-3.60;99.90
29777;DHT22;16677;52.224;7.484;2022-11-20T01:13:54;-3.80;99.90
29777;DHT22;16677;52.224;7.484;2022-11-20T01:16:23;-3.90;99.90
29777;DHT22;16677;52.224;7.484;2022-11-20T01:18:53;-3.80;99.90
29777;DHT22;16677;52.224;7.484;2022-11-20T01:21:26;-4.00;99.90
29777;DHT22;16677;52.224;7.484;2022-11-20T01:23:55;-4.10;99.90
29777;DHT22;16677;52.224;7.484;2022-11-20T01:26:28;-4.10;99.90
29777;DHT22;16677;52.224;7.484;2022-11-20T01:29:00;-4.10;99.90
29777;DHT22;16677;52.224;7.484;2022-11-20T01:31:34;-3.80;99.90
29777;DHT22;16677;52.224;7.484;2022-11-20T01:34:03;-3.80;99.90
29777;DHT22;16677;52.224;7.484;2022-11-20T01:36:31;-3.70;99.90
29777;DHT22;16677;52.224;7.484;2022-11-20T01:39:04;-3.60;99.90
29777;DHT22;16677;52.224;7.484;2022-11-20T01:41:32;-3.70;99.90
29777;DHT22;16677;52.224;7.484;2022-11-20T01:44:19;-3.80;99.90
29777;DHT22;16677;52.224;7.484;2022-11-20T01:47:08;-3.80;99.90
29777;DHT22;16677;52.224;7.484;2022-11-20T01:49:39;-4.00;99.90
29777;DHT22;16677;52.224;7.484;2022-11-20T01:52:12;-4.10;99.90
29777;DHT22;16677;52.224;7.484;2022-11-20T01:54:46;-4.20;99.90
29777;DHT22;16677;52.224;7.484;2022-11-20T01:57:15;-4.10;99.90
29777;DHT22;16677;52.224;7.484;2022-11-20T01:59:44;-4.20;99.90
29777;DHT22;16677;52.224;7.484;2022-11-20T02:02:15;-4.30;99.90
29777;DHT22;16677;52.224;7.484;2022-11-20T02:04:42;-4.20;99.90
29777;DHT22;16677;52.224;7.484;2022-11-20T02:07:09;-4.20;99.90
29777;DHT22;16677;52.224;7.484;2022-11-20T02:09:37;-4.10;99.90
29777;DHT22;16677;52.224;7.484;2022-11-20T02:12:06;-4.30;99.90
29777;DHT22;16677;52.224;7.484;2022-11-20T02:14:56;-4.20;99.90
29777;DHT22;16677;52.224;7.484;2022-11-20T02:17:24;-4.20;99.90
29777;DHT22;16677;52.224;7.484;2022-11-20T02:19:51;-4.20;99.90
29777;DHT22;16677;52.224;7.484;2022-11-20T02:22:24;-4.40;99.90
29777;DHT22;16677;52.224;7.484;2022-11-20T02:24:58;-4.40;99.90
29777;DHT22;16677;52.224;7.484;2022-11-20T02:27:41;-4.50;99.90
29777;DHT22;16677;52.224;7.484;2022-11-20T02:30:08;-4.70;99.90
29777;DHT22;16677;52.224;7.484;2022-11-20T02:32:38;-4.50;99.90
29777;DHT22;16677;52.224;7.484;2022-11-20T02:35:06;-4.40;99.90
29777;DHT22;16677;52.224;7.484;2022-11-20T02:37:36;-4.20;99.90
29777;DHT22;16677;52.224;7.484;2022-11-20T02:40:04;-4.10;99.90
29777;DHT22;16677;52.224;7.484;2022-11-20T02:42:32;-3.80;99.90
29777;DHT22;16677;52.224;7.484;2022-11-20T02:44:59;-4.10;99.90
29777;DHT22;16677;52.224;7.484;2022-11-20T02:47:29;-4.20;99.90
29777;DHT22;16677;52.224;7.484;2022-11-20T02:49:57;-4.10;99.90
29777;DHT22;16677;52.224;7.484;2022-11-20T02:52:25;-4.20;99.90
29777;DHT22;16677;52.224;7.484;2022-11-20T02:54:54;-4.20;99.90
29777;DHT22;16677;52.224;7.484;2022-11-20T02:57:23;-4.30;99.90
29777;DHT22;16677;52.224;7.484;2022-11-20T02:59:55;-4.30;99.90
29777;DHT22;16677;52.224;7.484;2022-11-20T03:02:22;-4.40;99.90
29777;DHT22;16677;52.224;7.484;2022-11-20T03:04:50;-4.10;99.90
29777;DHT22;16677;52.224;7.484;2022-11-20T03:07:18;-4.10;99.90
29777;DHT22;16677;52.224;7.484;2022-11-20T03:09:45;-4.20;99.90
29777;DHT22;16677;52.224;7.484;2022-11-20T03:12:14;-4.20;99.90
29777;DHT22;16677;52.224;7.484;2022-11-20T03:14:42;-4.30;99.90
29777;DHT22;16677;52.224;7.484;2022-11-20T03:17:16;-4.40;99.90
29777;DHT22;16677;52.224;7.484;2022-11-20T03:19:45;-4.20;99.90
29777;DHT22;16677;52.224;7.484;2022-11-20T03:22:29;-4.40;99.90
29777;DHT22;16677;52.224;7.484;2022-11-20T03:25:00;-4.50;99.90
29777;DHT22;16677;52.224;7.484;2022-11-20T03:27:32;-4.40;99.90
29777;DHT22;16677;52.224;7.484;2022-11-20T03:30:00;-4.40;99.90
29777;DHT22;16677;52.224;7.484;2022-11-20T03:32:29;-4.60;99.90
29777;DHT22;16677;52.224;7.484;2022-11-20T03:35:00;-4.50;99.90
29777;DHT22;16677;52.224;7.484;2022-11-20T03:37:28;-4.50;99.90
29777;DHT22;16677;52.224;7.484;2022-11-20T03:40:00;-4.40;99.90
29777;DHT22;16677;52.224;7.484;2022-11-20T03:42:28;-4.50;99.90
29777;DHT22;16677;52.224;7.484;2022-11-20T03:45:27;-4.50;99.90
29777;DHT22;16677;52.224;7.484;2022-11-20T03:47:57;-4.60;99.90
29777;DHT22;16677;52.224;7.484;2022-11-20T03:50:26;-4.50;99.90
29777;DHT22;16677;52.224;7.484;2022-11-20T03:52:53;-4.60;99.90
29777;DHT22;16677;52.224;7.484;2022-11-20T03:55:21;-4.60;99.90
29777;DHT22;16677;52.224;7.484;2022-11-20T03:57:52;-4.40;99.90
29777;DHT22;16677;52.224;7.484;2022-11-20T04:00:23;-4.30;99.90
29777;DHT22;16677;52.224;7.484;2022-11-20T04:02:53;-4.50;99.90
29777;DHT22;16677;52.224;7.484;2022-11-20T04:05:22;-4.50;99.90
29777;DHT22;16677;52.224;7.484;2022-11-20T04:07:50;-4.10;99.90
29777;DHT22;16677;52.224;7.484;2022-11-20T04:10:18;-4.40;99.90
29777;DHT22;16677;52.224;7.484;2022-11-20T04:12:46;-3.90;99.90
29777;DHT22;16677;52.224;7.484;2022-11-20T04:15:15;-4.60;99.90
29777;DHT22;16677;52.224;7.484;2022-11-20T04:17:46;-4.60;99.90
29777;DHT22;16677;52.224;7.484;2022-11-20T04:20:14;-4.60;99.90
29777;DHT22;16677;52.224;7.484;2022-11-20T04:22:42;-4.60;99.90
29777;DHT22;16677;52.224;7.484;2022-11-20T04:25:09;-3.80;99.90
29777;DHT22;16677;52.224;7.484;2022-11-20T04:27:37;-4.60;99.90
29777;DHT22;16677;52.224;7.484;2022-11-20T04:30:05;-4.70;99.90
29777;DHT22;16677;52.224;7.484;2022-11-20T04:32:35;-4.40;99.90
29777;DHT22;16677;52.224;7.484;2022-11-20T04:35:06;-4.30;99.90
29777;DHT22;16677;52.224;7.484;2022-11-20T04:37:35;-4.30;99.90
29777;DHT22;16677;52.224;7.484;2022-11-20T04:40:08;-4.30;99.90
29777;DHT22;16677;52.224;7.484;2022-11-20T04:42:38;-4.30;99.90
29777;DHT22;16677;52.224;7.484;2022-11-20T04:45:09;-3.30;99.90
29777;DHT22;16677;52.224;7.484;2022-11-20T04:47:47;-3.90;99.90
29777;DHT22;16677;52.224;7.484;2022-11-20T04:50:19;-4.30;98.20
29777;DHT22;16677;52.224;7.484;2022-11-20T04:52:50;-4.50;98.00
29777;DHT22;16677;52.224;7.484;2022-11-20T04:55:31;-4.40;99.90
29777;DHT22;16677;52.224;7.484;2022-11-20T04:58:00;-4.30;99.90
29777;DHT22;16677;52.224;7.484;2022-11-20T05:00:27;-4.30;99.90
29777;DHT22;16677;52.224;7.484;2022-11-20T05:03:00;-4.40;99.90
29777;DHT22;16677;52.224;7.484;2022-11-20T05:05:38;-4.30;99.90
29777;DHT22;16677;52.224;7.484;2022-11-20T05:27:04;-4.50;85.20
29777;DHT22;16677;52.224;7.484;2022-11-20T05:29:34;-4.50;76.90
29777;DHT22;16677;52.224;7.484;2022-11-20T05:32:07;-3.90;71.40
29777;DHT22;16677;52.224;7.484;2022-11-20T05:34:37;-4.60;67.50
29777;DHT22;16677;52.224;7.484;2022-11-20T05:37:07;-4.60;56.10
29777;DHT22;16677;52.224;7.484;2022-11-20T05:39:35;-4.70;57.90
29777;DHT22;16677;52.224;7.484;2022-11-20T05:42:07;-4.70;55.00
29777;DHT22;16677;52.224;7.484;2022-11-20T05:44:54;-4.70;53.50
29777;DHT22;16677;52.224;7.484;2022-11-20T05:47:24;-4.70;52.10
29777;DHT22;16677;52.224;7.484;2022-11-20T05:50:01;-4.90;52.50
29777;DHT22;16677;52.224;7.484;2022-11-20T05:52:35;-4.20;60.60
29777;DHT22;16677;52.224;7.484;2022-11-20T05:55:04;-4.60;66.80
29777;DHT22;16677;52.224;7.484;2022-11-20T05:57:35;-4.30;68.80
29777;DHT22;16677;52.224;7.484;2022-11-20T06:00:05;-4.60;71.90
29777;DHT22;16677;52.224;7.484;2022-11-20T06:02:35;-4.50;73.70
29777;DHT22;16677;52.224;7.484;2022-11-20T06:05:05;-4.30;70.20
29777;DHT22;16677;52.224;7.484;2022-11-20T06:07:34;-5.00;75.60
29777;DHT22;16677;52.224;7.484;2022-11-20T06:10:03;-4.60;76.60
29777;DHT22;16677;52.224;7.484;2022-11-20T06:12:39;-4.40;78.10
29777;DHT22;16677;52.224;7.484;2022-11-20T06:15:12;-4.70;76.60
29777;DHT22;16677;52.224;7.484;2022-11-20T06:17:40;-4.10;74.60
29777;DHT22;16677;52.224;7.484;2022-11-20T06:20:09;-4.50;72.40
29777;DHT22;16677;52.224;7.484;2022-11-20T06:22:39;-4.60;73.40
29777;DHT22;16677;52.224;7.484;2022-11-20T06:25:09;-4.80;74.10
29777;DHT22;16677;52.224;7.484;2022-11-20T06:27:38;-4.50;75.20
29777;DHT22;16677;52.224;7.484;2022-11-20T06:30:26;-4.60;77.00
29777;DHT22;16677;52.224;7.484;2022-11-20T06:32:58;-4.50;72.00
29777;DHT22;16677;52.224;7.484;2022-11-20T06:35:28;-4.50;76.10
29777;DHT22;16677;52.224;7.484;2022-11-20T06:37:58;-4.60;76.10
29777;DHT22;16677;52.224;7.484;2022-11-20T06:40:55;-4.50;74.10
29777;DHT22;16677;52.224;7.484;2022-11-20T06:43:36;-4.60;64.60
29777;DHT22;16677;52.224;7.484;2022-11-20T06:46:05;-4.80;64.50
29777;DHT22;16677;52.224;7.484;2022-11-20T06:48:38;-4.90;67.30
29777;DHT22;16677;52.224;7.484;2022-11-20T06:51:07;-4.70;75.00
29777;DHT22;16677;52.224;7.484;2022-11-20T06:53:35;-3.60;80.30
29777;DHT22;16677;52.224;7.484;2022-11-20T06:56:03;-4.60;86.00
29777;DHT22;16677;52.224;7.484;2022-11-20T06:58:35;-4.50;90.20
29777;DHT22;16677;52.224;7.484;2022-11-20T07:01:12;-4.40;90.90
29777;DHT22;16677;52.224;7.484;2022-11-20T07:03:48;-4.60;90.10
29777;DHT22;16677;52.224;7.484;2022-11-20T07:06:20;-4.50;90.10
29777;DHT22;16677;52.224;7.484;2022-11-20T07:08:51;-4.50;88.80
29777;DHT22;16677;52.224;7.484;2022-11-20T07:11:23;-4.10;89.00
29777;DHT22;16677;52.224;7.484;2022-11-20T07:14:04;-4.40;89.00
29777;DHT22;16677;52.224;7.484;2022-11-20T07:16:46;-3.10;90.60
29777;DHT22;16677;52.224;7.484;2022-11-20T07:48:48;-3.10;54.80
29777;DHT22;16677;52.224;7.484;2022-11-20T07:51:15;-2.10;47.20
29777;DHT22;16677;52.224;7.484;2022-11-20T07:53:42;-1.90;36.70
29777;DHT22;16677;52.224;7.484;2022-11-20T07:56:09;-2.30;29.80
29777;DHT22;16677;52.224;7.484;2022-11-20T07:58:37;-2.60;19.10
29777;DHT22;16677;52.224;7.484;2022-11-20T08:01:07;-2.50;12.70
29777;DHT22;16677;52.224;7.484;2022-11-20T08:03:36;-2.60;6.70
29777;DHT22;16677;52.224;7.484;2022-11-20T08:06:05;-2.40;1.30
29777;DHT22;16677;52.224;7.484;2022-11-20T08:08:33;-2.30;1.00
29777;DHT22;16677;52.224;7.484;2022-11-20T08:11:05;-2.40;1.00
29777;DHT22;16677;52.224;7.484;2022-11-20T08:13:51;-2.00;1.00
29777;DHT22;16677;52.224;7.484;2022-11-20T08:16:38;-1.20;1.00
29777;DHT22;16677;52.224;7.484;2022-11-20T08:19:09;-1.70;1.00
29777;DHT22;16677;52.224;7.484;2022-11-20T08:21:40;-1.70;1.00
29777;DHT22;16677;52.224;7.484;2022-11-20T08:24:09;-1.50;1.00
29777;DHT22;16677;52.224;7.484;2022-11-20T08:26:39;-1.40;1.00
29777;DHT22;16677;52.224;7.484;2022-11-20T08:29:07;-1.20;1.00
29777;DHT22;16677;52.224;7.484;2022-11-20T08:31:38;-1.10;1.00
29777;DHT22;16677;52.224;7.484;2022-11-20T08:34:09;-1.10;1.00
29777;DHT22;16677;52.224;7.484;2022-11-20T08:36:44;-1.20;1.00
29777;DHT22;16677;52.224;7.484;2022-11-20T08:39:13;-1.20;1.00
29777;DHT22;16677;52.224;7.484;2022-11-20T09:14:01;-0.50;1.00
29777;DHT22;16677;52.224;7.484;2022-11-20T09:16:29;-0.40;1.00
29777;DHT22;16677;52.224;7.484;2022-11-20T09:19:01;-0.60;1.00
29777;DHT22;16677;52.224;7.484;2022-11-20T09:21:48;-0.40;1.00
29777;DHT22;16677;52.224;7.484;2022-11-20T09:24:15;-0.40;1.00
29777;DHT22;16677;52.224;7.484;2022-11-20T09:26:41;-0.40;1.00
29777;DHT22;16677;52.224;7.484;2022-11-20T09:29:08;-0.30;1.00
29777;DHT22;16677;52.224;7.484;2022-11-20T09:31:35;-0.50;1.00
29777;DHT22;16677;52.224;7.484;2022-11-20T09:34:03;0.10;1.00
29777;DHT22;16677;52.224;7.484;2022-11-20T09:36:29;-0.20;1.00
29777;DHT22;16677;52.224;7.484;2022-11-20T09:38:57;-0.20;1.00
29777;DHT22;16677;52.224;7.484;2022-11-20T09:47:02;-0.20;1.00
29777;DHT22;16677;52.224;7.484;2022-11-20T09:49:42;0.00;1.00
29777;DHT22;16677;52.224;7.484;2022-11-20T09:54:49;0.40;1.00
29777;DHT22;16677;52.224;7.484;2022-11-20T09:57:21;0.80;1.00
29777;DHT22;16677;52.224;7.484;2022-11-20T09:59:53;0.60;1.00
29777;DHT22;16677;52.224;7.484;2022-11-20T10:04:55;0.70;1.00
29777;DHT22;16677;52.224;7.484;2022-11-20T10:07:30;0.60;1.00
29777;DHT22;16677;52.224;7.484;2022-11-20T10:10:00;0.70;1.00
29777;DHT22;16677;52.224;7.484;2022-11-20T10:12:52;0.80;1.00
29777;DHT22;16677;52.224;7.484;2022-11-20T10:18:01;0.90;1.00
29777;DHT22;16677;52.224;7.484;2022-11-20T10:26:14;1.30;1.00
29777;DHT22;16677;52.224;7.484;2022-11-20T10:28:48;1.40;1.00
29777;DHT22;16677;52.224;7.484;2022-11-20T10:31:43;1.50;1.00
29777;DHT22;16677;52.224;7.484;2022-11-20T10:37:28;1.70;1.00
29777;DHT22;16677;52.224;7.484;2022-11-20T10:42:56;1.40;1.00
29777;DHT22;16677;52.224;7.484;2022-11-20T10:53:56;1.60;1.00
29777;DHT22;16677;52.224;7.484;2022-11-20T10:56:49;1.30;1.00
29777;DHT22;16677;52.224;7.484;2022-11-20T11:01:59;1.20;9.70
29777;DHT22;16677;52.224;7.484;2022-11-20T11:04:40;1.50;18.90
29777;DHT22;16677;52.224;7.484;2022-11-20T11:07:41;1.70;17.10
29777;DHT22;16677;52.224;7.484;2022-11-20T11:10:17;1.60;10.60
29777;DHT22;16677;52.224;7.484;2022-11-20T11:12:46;1.70;1.00
29777;DHT22;16677;52.224;7.484;2022-11-20T11:17:52;1.90;1.00
29777;DHT22;16677;52.224;7.484;2022-11-20T11:20:21;2.20;1.00
29777;DHT22;16677;52.224;7.484;2022-11-20T11:22:57;2.20;1.00
29777;DHT22;16677;52.224;7.484;2022-11-20T11:25:30;2.40;1.00
29777;DHT22;16677;52.224;7.484;2022-11-20T11:28:04;2.00;99.90
29777;DHT22;16677;52.224;7.484;2022-11-20T11:30:42;2.10;99.90
29777;DHT22;16677;52.224;7.484;2022-11-20T11:33:11;2.00;99.90
29777;DHT22;16677;52.224;7.484;2022-11-20T11:35:55;2.00;99.90
29777;DHT22;16677;52.224;7.484;2022-11-20T11:38:38;1.60;1.00
29777;DHT22;16677;52.224;7.484;2022-11-20T11:41:12;1.50;1.00
29777;DHT22;16677;52.224;7.484;2022-11-20T11:43:53;1.50;1.00
29777;DHT22;16677;52.224;7.484;2022-11-20T11:46:44;1.60;1.00
29777;DHT22;16677;52.224;7.484;2022-11-20T11:49:19;1.80;1.00
29777;DHT22;16677;52.224;7.484;2022-11-20T11:57:17;2.40;1.00
29777;DHT22;16677;52.224;7.484;2022-11-20T12:02:56;2.30;1.00
29777;DHT22;16677;52.224;7.484;2022-11-20T12:05:52;2.40;1.00
29777;DHT22;16677;52.224;7.484;2022-11-20T12:08:25;2.70;1.00
29777;DHT22;16677;52.224;7.484;2022-11-20T12:11:14;2.50;1.00
29777;DHT22;16677;52.224;7.484;2022-11-20T12:13:55;2.80;1.00
29777;DHT22;16677;52.224;7.484;2022-11-20T12:16:33;2.90;1.00
29777;DHT22;16677;52.224;7.484;2022-11-20T12:19:11;3.00;1.00
29777;DHT22;16677;52.224;7.484;2022-11-20T12:30:15;3.50;1.00
29777;DHT22;16677;52.224;7.484;2022-11-20T12:41:29;3.50;1.00
29777;DHT22;16677;52.224;7.484;2022-11-20T12:50:54;3.40;1.00
29777;DHT22;16677;52.224;7.484;2022-11-20T12:56:41;3.30;1.00
29777;DHT22;16677;52.224;7.484;2022-11-20T13:02:28;3.40;1.00
29777;DHT22;16677;52.224;7.484;2022-11-20T13:07:28;3.30;1.00
29777;DHT22;16677;52.224;7.484;2022-11-20T13:09:56;3.10;1.00
29777;DHT22;16677;52.224;7.484;2022-11-20T13:12:34;3.10;1.00
29777;DHT22;16677;52.224;7.484;2022-11-20T13:17:55;3.10;1.00
29777;DHT22;16677;52.224;7.484;2022-11-20T13:20:24;3.20;1.00
29777;DHT22;16677;52.224;7.484;2022-11-20T13:22:54;3.10;1.00
29777;DHT22;16677;52.224;7.484;2022-11-20T13:25:28;3.20;1.00
29777;DHT22;16677;52.224;7.484;2022-11-20T13:27:57;3.40;1.00
29777;DHT22;16677;52.224;7.484;2022-11-20T13:30:29;3.30;1.00
29777;DHT22;16677;52.224;7.484;2022-11-20T13:35:37;3.00;1.00
29777;DHT22;16677;52.224;7.484;2022-11-20T13:38:08;3.10;1.00
29777;DHT22;16677;52.224;7.484;2022-11-20T13:40:51;3.00;1.00
29777;DHT22;16677;52.224;7.484;2022-11-20T13:46:04;3.20;1.00
29777;DHT22;16677;52.224;7.484;2022-11-20T13:48:34;3.10;1.00
29777;DHT22;16677;52.224;7.484;2022-11-20T13:59:57;3.10;1.00
29777;DHT22;16677;52.224;7.484;2022-11-20T14:02:30;3.10;1.00
29777;DHT22;16677;52.224;7.484;2022-11-20T14:05:00;3.10;1.00
29777;DHT22;16677;52.224;7.484;2022-11-20T14:07:39;3.10;1.00
29777;DHT22;16677;52.224;7.484;2022-11-20T14:10:23;3.10;99.90
29777;DHT22;16677;52.224;7.484;2022-11-20T14:13:19;3.10;99.90
29777;DHT22;16677;52.224;7.484;2022-11-20T14:15:57;3.20;99.90
29777;DHT22;16677;52.224;7.484;2022-11-20T14:18:25;3.00;99.90
29777;DHT22;16677;52.224;7.484;2022-11-20T14:20:55;2.90;1.00
29777;DHT22;16677;52.224;7.484;2022-11-20T14:23:28;2.90;99.90
29777;DHT22;16677;52.224;7.484;2022-11-20T14:26:02;2.70;1.00
29777;DHT22;16677;52.224;7.484;2022-11-20T14:28:33;2.80;1.00
29777;DHT22;16677;52.224;7.484;2022-11-20T14:31:03;2.80;99.90
29777;DHT22;16677;52.224;7.484;2022-11-20T14:33:38;2.70;99.90
29777;DHT22;16677;52.224;7.484;2022-11-20T14:36:20;2.70;1.00
29777;DHT22;16677;52.224;7.484;2022-11-20T14:38:48;2.70;1.00
29777;DHT22;16677;52.224;7.484;2022-11-20T15:27:52;2.30;84.20
29777;DHT22;16677;52.224;7.484;2022-11-20T15:30:24;2.30;89.40
29777;DHT22;16677;52.224;7.484;2022-11-20T15:33:08;2.10;95.00
29777;DHT22;16677;52.224;7.484;2022-11-20T15:35:50;2.10;98.60
29777;DHT22;16677;52.224;7.484;2022-11-20T15:38:31;2.10;99.90
29777;DHT22;16677;52.224;7.484;2022-11-20T15:40:58;1.90;1.00
29777;DHT22;16677;52.224;7.484;2022-11-20T15:43:26;2.10;99.90
29777;DHT22;16677;52.224;7.484;2022-11-20T15:46:03;2.00;99.90
29777;DHT22;16677;52.224;7.484;2022-11-20T15:48:41;2.20;99.90
29777;DHT22;16677;52.224;7.484;2022-11-20T15:51:37;2.10;99.90
29777;DHT22;16677;52.224;7.484;2022-11-20T15:54:22;2.00;99.90
29777;DHT22;16677;52.224;7.484;2022-11-20T15:56:52;2.10;99.90
29777;DHT22;16677;52.224;7.484;2022-11-20T15:59:21;2.10;99.90
29777;DHT22;16677;52.224;7.484;2022-11-20T16:01:52;2.20;97.50
29777;DHT22;16677;52.224;7.484;2022-11-20T16:04:40;2.20;97.80
29777;DHT22;16677;52.224;7.484;2022-11-20T16:07:24;2.10;97.20
29777;DHT22;16677;52.224;7.484;2022-11-20T16:09:58;1.80;98.30
29777;DHT22;16677;52.224;7.484;2022-11-20T16:12:29;2.10;99.40
29777;DHT22;16677;52.224;7.484;2022-11-20T16:15:40;2.20;99.60
29777;DHT22;16677;52.224;7.484;2022-11-20T16:18:17;2.80;99.40
29777;DHT22;16677;52.224;7.484;2022-11-20T16:24:45;2.40;95.30
29777;DHT22;16677;52.224;7.484;2022-11-20T16:27:22;2.60;79.00
29777;DHT22;16677;52.224;7.484;2022-11-20T16:29:52;2.60;61.50
29777;DHT22;16677;52.224;7.484;2022-11-20T16:32:24;2.60;56.30
29777;DHT22;16677;52.224;7.484;2022-11-20T16:38:21;2.60;38.50
29777;DHT22;16677;52.224;7.484;2022-11-20T16:41:03;2.60;40.70
29777;DHT22;16677;52.224;7.484;2022-11-20T16:43:31;2.70;41.70
29777;DHT22;16677;52.224;7.484;2022-11-20T16:49:32;2.50;40.60
29777;DHT22;16677;52.224;7.484;2022-11-20T17:03:40;2.80;21.80
29777;DHT22;16677;52.224;7.484;2022-11-20T17:06:17;2.60;15.20
29777;DHT22;16677;52.224;7.484;2022-11-20T17:09:08;2.60;17.10
29777;DHT22;16677;52.224;7.484;2022-11-20T17:11:45;2.60;21.30
29777;DHT22;16677;52.224;7.484;2022-11-20T17:14:28;2.20;18.90
29777;DHT22;16677;52.224;7.484;2022-11-20T17:17:01;2.50;25.80
29777;DHT22;16677;52.224;7.484;2022-11-20T17:19:34;2.60;23.90
29777;DHT22;16677;52.224;7.484;2022-11-20T17:22:10;3.00;14.50
29777;DHT22;16677;52.224;7.484;2022-11-20T17:24:44;2.60;17.70
29777;DHT22;16677;52.224;7.484;2022-11-20T17:27:17;2.60;11.90
29777;DHT22;16677;52.224;7.484;2022-11-20T17:29:55;2.50;14.40
29777;DHT22;16677;52.224;7.484;2022-11-20T17:32:25;2.70;16.80
29777;DHT22;16677;52.224;7.484;2022-11-20T17:35:03;2.60;12.10
29777;DHT22;16677;52.224;7.484;2022-11-20T17:37:33;2.60;14.00
29777;DHT22;16677;52.224;7.484;2022-11-20T17:40:00;2.20;14.80
29777;DHT22;16677;52.224;7.484;2022-11-20T17:42:37;2.70;13.70
29777;DHT22;16677;52.224;7.484;2022-11-20T17:45:19;2.60;9.30
29777;DHT22;16677;52.224;7.484;2022-11-20T17:47:53;2.70;9.50
29777;DHT22;16677;52.224;7.484;2022-11-20T17:50:29;2.70;3.90
29777;DHT22;16677;52.224;7.484;2022-11-20T17:52:56;2.80;2.90
29777;DHT22;16677;52.224;7.484;2022-11-20T17:55:23;2.80;5.30
29777;DHT22;16677;52.224;7.484;2022-11-20T17:57:52;2.80;4.60
29777;DHT22;16677;52.224;7.484;2022-11-20T18:00:23;2.90;5.20
29777;DHT22;16677;52.224;7.484;2022-11-20T18:02:51;2.80;3.90
29777;DHT22;16677;52.224;7.484;2022-11-20T18:05:18;2.80;4.50
29777;DHT22;16677;52.224;7.484;2022-11-20T18:07:50;2.80;6.00
29777;DHT22;16677;52.224;7.484;2022-11-20T18:10:17;2.80;6.70
29777;DHT22;16677;52.224;7.484;2022-11-20T18:12:45;2.80;10.60
29777;DHT22;16677;52.224;7.484;2022-11-20T18:15:13;2.70;13.00
29777;DHT22;16677;52.224;7.484;2022-11-20T18:17:41;2.70;18.00
29777;DHT22;16677;52.224;7.484;2022-11-20T18:20:11;2.60;19.80
29777;DHT22;16677;52.224;7.484;2022-11-20T18:23:01;2.70;27.10
29777;DHT22;16677;52.224;7.484;2022-11-20T18:25:41;2.80;33.00
29777;DHT22;16677;52.224;7.484;2022-11-20T18:28:16;2.60;42.80
29777;DHT22;16677;52.224;7.484;2022-11-20T18:31:06;2.50;48.00
29777;DHT22;16677;52.224;7.484;2022-11-20T18:33:35;2.50;56.30
29777;DHT22;16677;52.224;7.484;2022-11-20T18:36:15;2.40;66.50
29777;DHT22;16677;52.224;7.484;2022-11-20T18:38:47;2.40;71.70
29777;DHT22;16677;52.224;7.484;2022-11-20T18:41:17;2.40;77.40
29777;DHT22;16677;52.224;7.484;2022-11-20T18:44:05;2.30;93.50
29777;DHT22;16677;52.224;7.484;2022-11-20T18:46:51;2.30;98.20
29777;DHT22;16677;52.224;7.484;2022-11-20T18:49:22;2.50;98.00
29777;DHT22;16677;52.224;7.484;2022-11-20T18:51:52;2.20;89.30
29777;DHT22;16677;52.224;7.484;2022-11-20T18:54:19;2.40;95.00
29777;DHT22;16677;52.224;7.484;2022-11-20T18:56:47;2.20;97.10
29777;DHT22;16677;52.224;7.484;2022-11-20T18:59:16;2.10;99.90
29777;DHT22;16677;52.224;7.484;2022-11-20T19:01:44;2.10;99.90
29777;DHT22;16677;52.224;7.484;2022-11-20T19:04:13;2.30;99.90
29777;DHT22;16677;52.224;7.484;2022-11-20T19:06:43;2.00;99.90
29777;DHT22;16677;52.224;7.484;2022-11-20T19:09:12;2.10;99.90
29777;DHT22;16677;52.224;7.484;2022-11-20T19:11:40;2.20;99.90
29777;DHT22;16677;52.224;7.484;2022-11-20T19:14:07;2.20;99.90
29777;DHT22;16677;52.224;7.484;2022-11-20T19:16:35;2.20;99.90
29777;DHT22;16677;52.224;7.484;2022-11-20T19:19:03;2.30;99.90
29777;DHT22;16677;52.224;7.484;2022-11-20T19:21:31;2.10;99.90
29777;DHT22;16677;52.224;7.484;2022-11-20T19:24:00;2.10;99.90
29777;DHT22;16677;52.224;7.484;2022-11-20T19:26:28;2.00;99.90
29777;DHT22;16677;52.224;7.484;2022-11-20T19:28:55;2.30;99.90
29777;DHT22;16677;52.224;7.484;2022-11-20T19:31:25;2.00;99.90
29777;DHT22;16677;52.224;7.484;2022-11-20T19:33:56;2.30;99.90
29777;DHT22;16677;52.224;7.484;2022-11-20T19:36:42;2.00;99.90
29777;DHT22;16677;52.224;7.484;2022-11-20T19:39:11;2.10;99.90
29777;DHT22;16677;52.224;7.484;2022-11-20T19:42:09;2.20;99.90
29777;DHT22;16677;52.224;7.484;2022-11-20T19:44:43;2.00;99.90
29777;DHT22;16677;52.224;7.484;2022-11-20T19:47:20;2.00;99.90
29777;DHT22;16677;52.224;7.484;2022-11-20T19:49:48;1.90;99.90
29777;DHT22;16677;52.224;7.484;2022-11-20T19:52:17;1.80;99.90
29777;DHT22;16677;52.224;7.484;2022-11-20T19:54:44;2.00;99.90
29777;DHT22;16677;52.224;7.484;2022-11-20T19:57:11;1.90;99.90
29777;DHT22;16677;52.224;7.484;2022-11-20T19:59:39;2.00;99.90
29777;DHT22;16677;52.224;7.484;2022-11-20T20:02:20;1.90;99.90
29777;DHT22;16677;52.224;7.484;2022-11-20T20:04:48;1.90;99.90
29777;DHT22;16677;52.224;7.484;2022-11-20T20:07:16;2.00;99.90
29777;DHT22;16677;52.224;7.484;2022-11-20T20:09:57;1.90;99.90
29777;DHT22;16677;52.224;7.484;2022-11-20T20:12:38;1.40;99.90
29777;DHT22;16677;52.224;7.484;2022-11-20T20:15:07;2.00;99.90
29777;DHT22;16677;52.224;7.484;2022-11-20T20:17:38;2.10;99.90
29777;DHT22;16677;52.224;7.484;2022-11-20T20:20:05;2.10;99.90
29777;DHT22;16677;52.224;7.484;2022-11-20T20:22:38;2.00;99.90
29777;DHT22;16677;52.224;7.484;2022-11-20T20:25:09;2.00;99.90